Terminal Aerodrome Forecast
Issued by NWS Twin Cities, MN

Home | Current Version | Previous Version | Graphics & Text | Print | Product List | Glossary On
Versions: 1 2 3 4 5 6 7 8 9 10 11 12 13 14 15 16
000
FTUS43 KMPX 181126
TAFEAU
TAF
KEAU 181126Z 1812/1912 34006KT 5SM BR OVC006
     FM181600 33008KT P6SM BKN010
     FM181800 33012G18KT P6SM SCT010
     FM182100 31013G22KT P6SM SKC
     FM190000 31012KT P6SM BKN045
     FM190500 28007KT P6SM SCT200=

USA.gov is the U.S. government's official web portal to all federal, state and local government web resources and services.